sensor_id;sensor_type;location;lat;lon;timestamp;pressure;altitude;pressure_sealevel;temperature;humidity
43119;BME280;28729;49.838;8.650;2023-04-25T00:01:05;99131.59;;;7.95;100.00
43119;BME280;28729;49.838;8.650;2023-04-25T00:05:07;99134.25;;;7.90;100.00
43119;BME280;28729;49.838;8.650;2023-04-25T00:09:09;99130.41;;;7.91;100.00
43119;BME280;28729;49.838;8.650;2023-04-25T00:13:12;99134.00;;;7.91;100.00
43119;BME280;28729;49.838;8.650;2023-04-25T00:17:15;99124.69;;;7.92;100.00
43119;BME280;28729;49.838;8.650;2023-04-25T00:21:18;99129.34;;;7.92;100.00
43119;BME280;28729;49.838;8.650;2023-04-25T00:25:21;99133.75;;;7.93;100.00
43119;BME280;28729;49.838;8.650;2023-04-25T00:29:22;99134.56;;;7.93;100.00
43119;BME280;28729;49.838;8.650;2023-04-25T00:33:24;99137.56;;;7.92;100.00
43119;BME280;28729;49.838;8.650;2023-04-25T00:37:26;99132.91;;;7.92;100.00
43119;BME280;28729;49.838;8.650;2023-04-25T00:41:29;99133.00;;;7.97;100.00
43119;BME280;28729;49.838;8.650;2023-04-25T00:45:31;99131.91;;;7.98;100.00
43119;BME280;28729;49.838;8.650;2023-04-25T00:49:36;99133.94;;;8.03;100.00
43119;BME280;28729;49.838;8.650;2023-04-25T00:53:37;99127.94;;;8.06;100.00
43119;BME280;28729;49.838;8.650;2023-04-25T00:57:40;99127.94;;;8.06;100.00
43119;BME280;28729;49.838;8.650;2023-04-25T01:01:42;99119.63;;;8.01;100.00
43119;BME280;28729;49.838;8.650;2023-04-25T01:05:46;99118.78;;;8.01;100.00
43119;BME280;28729;49.838;8.650;2023-04-25T01:09:48;99119.13;;;8.04;100.00
43119;BME280;28729;49.838;8.650;2023-04-25T01:13:49;99120.25;;;8.08;100.00
43119;BME280;28729;49.838;8.650;2023-04-25T01:17:53;99116.47;;;8.09;100.00
43119;BME280;28729;49.838;8.650;2023-04-25T01:21:56;99116.47;;;8.09;100.00
43119;BME280;28729;49.838;8.650;2023-04-25T01:25:58;99116.97;;;8.06;100.00
43119;BME280;28729;49.838;8.650;2023-04-25T01:30:00;99120.03;;;8.10;100.00
43119;BME280;28729;49.838;8.650;2023-04-25T01:34:05;99120.59;;;8.12;100.00
43119;BME280;28729;49.838;8.650;2023-04-25T01:38:07;99126.06;;;8.12;100.00
43119;BME280;28729;49.838;8.650;2023-04-25T01:42:09;99118.94;;;8.11;100.00
43119;BME280;28729;49.838;8.650;2023-04-25T01:46:11;99125.53;;;8.10;100.00
43119;BME280;28729;49.838;8.650;2023-04-25T01:50:14;99128.50;;;8.08;100.00
43119;BME280;28729;49.838;8.650;2023-04-25T01:54:18;99124.44;;;8.11;100.00
43119;BME280;28729;49.838;8.650;2023-04-25T01:58:20;99119.44;;;8.08;100.00
43119;BME280;28729;49.838;8.650;2023-04-25T02:02:41;99125.25;;;8.11;100.00
43119;BME280;28729;49.838;8.650;2023-04-25T02:07:09;99128.81;;;8.12;100.00
43119;BME280;28729;49.838;8.650;2023-04-25T02:11:22;99123.00;;;8.08;100.00
43119;BME280;28729;49.838;8.650;2023-04-25T02:15:48;99124.59;;;8.04;100.00
43119;BME280;28729;49.838;8.650;2023-04-25T02:19:53;99117.19;;;8.05;100.00
43119;BME280;28729;49.838;8.650;2023-04-25T02:23:56;99109.22;;;8.03;100.00
43119;BME280;28729;49.838;8.650;2023-04-25T02:27:58;99109.69;;;8.00;100.00
43119;BME280;28729;49.838;8.650;2023-04-25T02:31:59;99106.91;;;7.95;100.00
43119;BME280;28729;49.838;8.650;2023-04-25T02:36:01;99108.97;;;7.88;100.00
43119;BME280;28729;49.838;8.650;2023-04-25T02:40:03;99109.47;;;7.85;100.00
43119;BME280;28729;49.838;8.650;2023-04-25T02:44:05;99109.63;;;7.78;100.00
43119;BME280;28729;49.838;8.650;2023-04-25T02:48:07;99107.66;;;7.73;100.00
43119;BME280;28729;49.838;8.650;2023-04-25T02:52:09;99106.47;;;7.69;100.00
43119;BME280;28729;49.838;8.650;2023-04-25T02:56:11;99105.03;;;7.67;100.00
43119;BME280;28729;49.838;8.650;2023-04-25T03:00:13;99109.13;;;7.64;100.00
43119;BME280;28729;49.838;8.650;2023-04-25T03:04:16;99110.31;;;7.68;100.00
43119;BME280;28729;49.838;8.650;2023-04-25T03:08:18;99115.78;;;7.68;100.00
43119;BME280;28729;49.838;8.650;2023-04-25T03:12:20;99106.47;;;7.69;100.00
43119;BME280;28729;49.838;8.650;2023-04-25T03:16:22;99098.50;;;7.68;100.00
43119;BME280;28729;49.838;8.650;2023-04-25T03:20:23;99109.13;;;7.64;100.00
43119;BME280;28729;49.838;8.650;2023-04-25T03:24:26;99099.81;;;7.65;100.00
43119;BME280;28729;49.838;8.650;2023-04-25T03:28:28;99110.19;;;7.63;100.00
43119;BME280;28729;49.838;8.650;2023-04-25T03:32:31;99109.03;;;7.59;100.00
43119;BME280;28729;49.838;8.650;2023-04-25T03:36:33;99104.06;;;7.56;100.00
43119;BME280;28729;49.838;8.650;2023-04-25T03:40:36;99104.28;;;7.54;100.00
43119;BME280;28729;49.838;8.650;2023-04-25T03:44:52;99102.97;;;7.57;100.00
43119;BME280;28729;49.838;8.650;2023-04-25T03:48:55;99110.38;;;7.57;100.00
43119;BME280;28729;49.838;8.650;2023-04-25T03:53:04;99114.09;;;7.50;100.00
43119;BME280;28729;49.838;8.650;2023-04-25T03:57:27;99118.25;;;7.53;100.00
43119;BME280;28729;49.838;8.650;2023-04-25T04:01:29;99124.56;;;7.53;100.00
43119;BME280;28729;49.838;8.650;2023-04-25T04:05:31;99127.06;;;7.55;100.00
43119;BME280;28729;49.838;8.650;2023-04-25T04:09:34;99126.00;;;7.56;100.00
43119;BME280;28729;49.838;8.650;2023-04-25T04:13:41;99129.91;;;7.60;100.00
43119;BME280;28729;49.838;8.650;2023-04-25T04:17:43;99128.31;;;7.64;100.00
43119;BME280;28729;49.838;8.650;2023-04-25T04:21:46;99134.97;;;7.68;100.00
43119;BME280;28729;49.838;8.650;2023-04-25T04:25:50;99139.72;;;7.73;100.00
43119;BME280;28729;49.838;8.650;2023-04-25T04:30:16;99139.38;;;7.69;100.00
43119;BME280;28729;49.838;8.650;2023-04-25T04:34:31;99139.72;;;7.73;100.00
43119;BME280;28729;49.838;8.650;2023-04-25T04:38:33;99127.19;;;7.77;100.00
43119;BME280;28729;49.838;8.650;2023-04-25T04:42:37;99139.56;;;7.80;100.00
43119;BME280;28729;49.838;8.650;2023-04-25T04:47:00;99152.19;;;7.81;100.00
43119;BME280;28729;49.838;8.650;2023-04-25T04:51:07;99153.63;;;7.83;100.00
43119;BME280;28729;49.838;8.650;2023-04-25T04:55:35;99162.16;;;7.87;100.00
43119;BME280;28729;49.838;8.650;2023-04-25T04:59:46;99165.50;;;7.89;100.00
43119;BME280;28729;49.838;8.650;2023-04-25T05:04:09;99172.41;;;7.91;100.00
43119;BME280;28729;49.838;8.650;2023-04-25T05:08:36;99165.84;;;7.92;100.00
43119;BME280;28729;49.838;8.650;2023-04-25T05:13:05;99171.66;;;7.96;100.00
43119;BME280;28729;49.838;8.650;2023-04-25T05:17:08;99184.44;;;7.90;100.00
43119;BME280;28729;49.838;8.650;2023-04-25T05:21:34;99195.59;;;7.84;100.00
43119;BME280;28729;49.838;8.650;2023-04-25T05:25:49;99196.91;;;7.81;100.00
43119;BME280;28729;49.838;8.650;2023-04-25T05:30:19;99198.72;;;7.75;100.00
43119;BME280;28729;49.838;8.650;2023-04-25T05:34:40;99198.34;;;7.55;100.00
43119;BME280;28729;49.838;8.650;2023-04-25T05:38:56;99213.50;;;7.46;100.00
43119;BME280;28729;49.838;8.650;2023-04-25T05:43:18;99221.22;;;7.32;100.00
43119;BME280;28729;49.838;8.650;2023-04-25T05:47:31;99221.53;;;7.36;100.00
43119;BME280;28729;49.838;8.650;2023-04-25T05:51:44;99227.81;;;7.48;100.00
43119;BME280;28729;49.838;8.650;2023-04-25T05:56:06;99224.50;;;7.74;100.00
43119;BME280;28729;49.838;8.650;2023-04-25T06:00:09;99227.00;;;7.93;100.00
43119;BME280;28729;49.838;8.650;2023-04-25T06:04:18;99228.88;;;8.04;100.00
43119;BME280;28729;49.838;8.650;2023-04-25T06:08:22;99231.63;;;8.04;100.00
43119;BME280;28729;49.838;8.650;2023-04-25T06:12:26;99230.03;;;8.08;100.00
43119;BME280;28729;49.838;8.650;2023-04-25T06:16:30;99229.13;;;8.19;100.00
43119;BME280;28729;49.838;8.650;2023-04-25T06:20:37;99243.38;;;8.33;100.00
43119;BME280;28729;49.838;8.650;2023-04-25T06:24:39;99242.72;;;8.43;100.00
43119;BME280;28729;49.838;8.650;2023-04-25T06:28:43;99241.22;;;8.52;100.00
43119;BME280;28729;49.838;8.650;2023-04-25T06:32:49;99243.06;;;8.47;100.00
43119;BME280;28729;49.838;8.650;2023-04-25T06:36:52;99234.09;;;8.51;100.00
43119;BME280;28729;49.838;8.650;2023-04-25T06:40:56;99225.56;;;8.53;100.00
43119;BME280;28729;49.838;8.650;2023-04-25T06:45:00;99218.75;;;8.38;100.00
43119;BME280;28729;49.838;8.650;2023-04-25T06:49:07;99226.75;;;8.40;100.00
43119;BME280;28729;49.838;8.650;2023-04-25T06:53:10;99228.13;;;8.26;100.00
43119;BME280;28729;49.838;8.650;2023-04-25T06:57:20;99229.88;;;8.32;100.00
43119;BME280;28729;49.838;8.650;2023-04-25T07:01:24;99240.41;;;8.52;100.00
43119;BME280;28729;49.838;8.650;2023-04-25T07:05:27;99236.06;;;8.73;100.00
43119;BME280;28729;49.838;8.650;2023-04-25T07:09:29;99238.69;;;8.84;100.00
43119;BME280;28729;49.838;8.650;2023-04-25T07:13:33;99239.25;;;9.25;100.00
43119;BME280;28729;49.838;8.650;2023-04-25T07:17:35;99247.91;;;9.34;100.00
43119;BME280;28729;49.838;8.650;2023-04-25T07:21:37;99253.41;;;9.34;100.00
43119;BME280;28729;49.838;8.650;2023-04-25T07:25:40;99258.94;;;9.39;100.00
43119;BME280;28729;49.838;8.650;2023-04-25T07:29:42;99263.75;;;9.49;96.45
43119;BME280;28729;49.838;8.650;2023-04-25T07:33:46;99263.69;;;9.44;94.02
43119;BME280;28729;49.838;8.650;2023-04-25T07:37:48;99260.94;;;9.44;97.30
43119;BME280;28729;49.838;8.650;2023-04-25T07:41:53;99264.63;;;9.54;96.74
43119;BME280;28729;49.838;8.650;2023-04-25T07:46:02;99277.03;;;9.79;98.40
43119;BME280;28729;49.838;8.650;2023-04-25T07:50:11;99272.88;;;9.76;95.93
43119;BME280;28729;49.838;8.650;2023-04-25T07:54:17;99279.88;;;9.62;94.30
43119;BME280;28729;49.838;8.650;2023-04-25T07:58:26;99298.41;;;9.72;95.77
43119;BME280;28729;49.838;8.650;2023-04-25T08:02:32;99295.00;;;9.87;94.55
43119;BME280;28729;49.838;8.650;2023-04-25T08:06:35;99300.75;;;10.07;95.13
43119;BME280;28729;49.838;8.650;2023-04-25T08:10:48;99307.81;;;10.25;87.03
43119;BME280;28729;49.838;8.650;2023-04-25T08:14:52;99302.75;;;10.39;90.96
43119;BME280;28729;49.838;8.650;2023-04-25T08:18:57;99304.00;;;10.53;82.45
43119;BME280;28729;49.838;8.650;2023-04-25T08:23:00;99314.16;;;10.53;82.70
43119;BME280;28729;49.838;8.650;2023-04-25T08:27:26;99322.28;;;10.69;84.60
43119;BME280;28729;49.838;8.650;2023-04-25T08:31:31;99327.09;;;10.84;79.52
43119;BME280;28729;49.838;8.650;2023-04-25T08:35:37;99325.84;;;10.65;77.87
43119;BME280;28729;49.838;8.650;2023-04-25T08:39:40;99325.47;;;10.88;77.33
43119;BME280;28729;49.838;8.650;2023-04-25T08:44:10;99314.94;;;11.12;72.54
43119;BME280;28729;49.838;8.650;2023-04-25T08:48:15;99325.69;;;11.67;69.64
43119;BME280;28729;49.838;8.650;2023-04-25T08:52:23;99329.47;;;12.13;71.64
43119;BME280;28729;49.838;8.650;2023-04-25T08:56:31;99341.97;;;12.31;67.22
43119;BME280;28729;49.838;8.650;2023-04-25T09:00:37;99342.50;;;12.28;66.05
43119;BME280;28729;49.838;8.650;2023-04-25T09:04:44;99353.28;;;12.24;66.43
43119;BME280;28729;49.838;8.650;2023-04-25T09:08:50;99352.69;;;11.54;71.30
43119;BME280;28729;49.838;8.650;2023-04-25T09:13:10;99359.72;;;10.92;72.89
43119;BME280;28729;49.838;8.650;2023-04-25T09:17:42;99360.13;;;11.11;70.34
43119;BME280;28729;49.838;8.650;2023-04-25T09:21:53;99365.09;;;11.52;68.24
43119;BME280;28729;49.838;8.650;2023-04-25T09:25:56;99361.56;;;11.61;66.50
43119;BME280;28729;49.838;8.650;2023-04-25T09:30:00;99357.34;;;12.01;66.30
43119;BME280;28729;49.838;8.650;2023-04-25T09:34:25;99373.78;;;12.44;63.70
43119;BME280;28729;49.838;8.650;2023-04-25T09:38:32;99384.19;;;12.11;58.79
43119;BME280;28729;49.838;8.650;2023-04-25T09:42:56;99381.97;;;12.08;60.61
43119;BME280;28729;49.838;8.650;2023-04-25T09:47:00;99383.47;;;12.51;58.45
43119;BME280;28729;49.838;8.650;2023-04-25T09:51:12;99392.81;;;12.35;59.99
43119;BME280;28729;49.838;8.650;2023-04-25T09:55:18;99408.22;;;12.16;63.19
43119;BME280;28729;49.838;8.650;2023-04-25T09:59:21;99406.50;;;11.99;61.38
43119;BME280;28729;49.838;8.650;2023-04-25T10:03:32;99411.25;;;11.67;64.40
43119;BME280;28729;49.838;8.650;2023-04-25T10:07:48;99420.28;;;11.52;65.51
43119;BME280;28729;49.838;8.650;2023-04-25T10:11:50;99425.16;;;11.39;65.92
43119;BME280;28729;49.838;8.650;2023-04-25T10:15:55;99430.16;;;11.43;63.45
43119;BME280;28729;49.838;8.650;2023-04-25T10:20:03;99437.00;;;11.40;66.15
43119;BME280;28729;49.838;8.650;2023-04-25T10:24:09;99432.38;;;11.51;64.73
43119;BME280;28729;49.838;8.650;2023-04-25T10:28:13;99427.72;;;11.56;63.50
43119;BME280;28729;49.838;8.650;2023-04-25T10:32:17;99437.06;;;11.50;62.03
43119;BME280;28729;49.838;8.650;2023-04-25T10:36:21;99438.25;;;11.22;63.56
43119;BME280;28729;49.838;8.650;2023-04-25T10:40:24;99440.38;;;11.47;64.71
43119;BME280;28729;49.838;8.650;2023-04-25T10:44:27;99443.06;;;11.79;61.91
43119;BME280;28729;49.838;8.650;2023-04-25T10:48:31;99445.41;;;11.98;61.40
43119;BME280;28729;49.838;8.650;2023-04-25T10:52:34;99442.19;;;12.16;60.83
43119;BME280;28729;49.838;8.650;2023-04-25T10:56:38;99452.81;;;12.45;59.61
43119;BME280;28729;49.838;8.650;2023-04-25T11:00:41;99460.84;;;12.46;56.30
43119;BME280;28729;49.838;8.650;2023-04-25T11:05:04;99456.56;;;12.18;59.95
43119;BME280;28729;49.838;8.650;2023-04-25T11:09:11;99444.44;;;12.24;60.73
43119;BME280;28729;49.838;8.650;2023-04-25T11:13:20;99450.97;;;12.81;59.45
43119;BME280;28729;49.838;8.650;2023-04-25T11:17:25;99455.16;;;12.94;59.80
43119;BME280;28729;49.838;8.650;2023-04-25T11:21:27;99460.19;;;13.43;55.49
43119;BME280;28729;49.838;8.650;2023-04-25T11:25:33;99460.69;;;13.19;56.02
43119;BME280;28729;49.838;8.650;2023-04-25T11:29:39;99456.84;;;13.15;55.83
43119;BME280;28729;49.838;8.650;2023-04-25T11:33:42;99454.38;;;13.50;56.30
43119;BME280;28729;49.838;8.650;2023-04-25T11:37:46;99457.13;;;13.65;53.98
43119;BME280;28729;49.838;8.650;2023-04-25T11:41:51;99460.19;;;13.33;55.08
43119;BME280;28729;49.838;8.650;2023-04-25T11:45:53;99460.72;;;13.09;51.87
43119;BME280;28729;49.838;8.650;2023-04-25T11:50:00;99470.34;;;12.91;54.19
43119;BME280;28729;49.838;8.650;2023-04-25T11:54:02;99472.78;;;12.72;54.16
43119;BME280;28729;49.838;8.650;2023-04-25T11:58:05;99466.47;;;12.82;53.13
43119;BME280;28729;49.838;8.650;2023-04-25T12:02:24;99478.06;;;12.74;55.61
43119;BME280;28729;49.838;8.650;2023-04-25T12:06:28;99477.00;;;13.00;55.17
43119;BME280;28729;49.838;8.650;2023-04-25T12:10:30;99480.84;;;12.89;53.64
43119;BME280;28729;49.838;8.650;2023-04-25T12:14:34;99485.72;;;12.51;54.54
43119;BME280;28729;49.838;8.650;2023-04-25T12:18:40;99476.56;;;12.41;55.54
43119;BME280;28729;49.838;8.650;2023-04-25T12:22:47;99485.94;;;12.40;56.40
43119;BME280;28729;49.838;8.650;2023-04-25T12:26:58;99488.22;;;12.58;55.53
43119;BME280;28729;49.838;8.650;2023-04-25T12:31:06;99480.84;;;12.89;52.77
43119;BME280;28729;49.838;8.650;2023-04-25T12:35:09;99491.06;;;12.84;52.29
43119;BME280;28729;49.838;8.650;2023-04-25T12:39:15;99497.34;;;12.53;53.16
43119;BME280;28729;49.838;8.650;2023-04-25T12:43:19;99501.44;;;12.46;53.64
43119;BME280;28729;49.838;8.650;2023-04-25T12:47:22;99503.66;;;12.44;52.50
43119;BME280;28729;49.838;8.650;2023-04-25T12:51:26;99498.72;;;12.56;51.29
43119;BME280;28729;49.838;8.650;2023-04-25T12:55:32;99503.69;;;12.54;53.95
43119;BME280;28729;49.838;8.650;2023-04-25T12:59:36;99518.69;;;12.73;53.77
43119;BME280;28729;49.838;8.650;2023-04-25T13:03:38;99512.06;;;12.74;53.05
43119;BME280;28729;49.838;8.650;2023-04-25T13:07:45;99512.38;;;12.93;51.22
43119;BME280;28729;49.838;8.650;2023-04-25T13:11:49;99514.72;;;13.27;51.36
43119;BME280;28729;49.838;8.650;2023-04-25T13:15:52;99511.66;;;13.70;48.86
43119;BME280;28729;49.838;8.650;2023-04-25T13:19:54;99515.78;;;13.98;46.19
43119;BME280;28729;49.838;8.650;2023-04-25T13:23:59;99510.28;;;13.62;46.99
43119;BME280;28729;49.838;8.650;2023-04-25T13:28:03;99506.41;;;13.53;47.30
43119;BME280;28729;49.838;8.650;2023-04-25T13:32:09;99506.13;;;13.75;47.54
43119;BME280;28729;49.838;8.650;2023-04-25T13:36:12;99512.78;;;13.79;45.29
43119;BME280;28729;49.838;8.650;2023-04-25T13:40:17;99508.31;;;13.93;46.88
43119;BME280;28729;49.838;8.650;2023-04-25T13:44:20;99513.78;;;14.19;45.66
43119;BME280;28729;49.838;8.650;2023-04-25T13:48:24;99520.81;;;13.70;45.85
43119;BME280;28729;49.838;8.650;2023-04-25T13:52:27;99518.31;;;13.48;47.86
43119;BME280;28729;49.838;8.650;2023-04-25T13:56:30;99528.28;;;13.39;47.65
43119;BME280;28729;49.838;8.650;2023-04-25T14:00:35;99532.63;;;13.19;46.69
43119;BME280;28729;49.838;8.650;2023-04-25T14:04:40;99536.59;;;12.61;48.11
43119;BME280;28729;49.838;8.650;2023-04-25T14:08:43;99535.53;;;12.62;48.57
43119;BME280;28729;49.838;8.650;2023-04-25T14:12:47;99539.09;;;12.62;48.06
43119;BME280;28729;49.838;8.650;2023-04-25T14:16:52;99547.97;;;12.64;47.84
43119;BME280;28729;49.838;8.650;2023-04-25T14:20:55;99547.97;;;12.64;47.78
43119;BME280;28729;49.838;8.650;2023-04-25T14:24:59;99548.25;;;12.68;48.72
43119;BME280;28729;49.838;8.650;2023-04-25T14:29:06;99543.69;;;13.04;46.86
43119;BME280;28729;49.838;8.650;2023-04-25T14:33:11;99544.34;;;13.42;46.40
43119;BME280;28729;49.838;8.650;2023-04-25T14:37:14;99549.31;;;13.40;46.73
43119;BME280;28729;49.838;8.650;2023-04-25T14:41:19;99559.28;;;13.36;44.99
43119;BME280;28729;49.838;8.650;2023-04-25T14:45:23;99549.25;;;13.19;44.91
43119;BME280;28729;49.838;8.650;2023-04-25T14:49:25;99552.97;;;12.72;46.97
43119;BME280;28729;49.838;8.650;2023-04-25T14:53:31;99542.19;;;12.71;46.96
43119;BME280;28729;49.838;8.650;2023-04-25T14:57:35;99555.19;;;12.70;46.85
43119;BME280;28729;49.838;8.650;2023-04-25T15:01:38;99564.34;;;12.81;45.77
43119;BME280;28729;49.838;8.650;2023-04-25T15:05:40;99548.03;;;12.85;45.74
43119;BME280;28729;49.838;8.650;2023-04-25T15:09:43;99555.78;;;12.83;45.62
43119;BME280;28729;49.838;8.650;2023-04-25T15:13:45;99552.16;;;12.77;46.64
43119;BME280;28729;49.838;8.650;2023-04-25T15:17:47;99558.50;;;12.72;47.08
43119;BME280;28729;49.838;8.650;2023-04-25T15:21:51;99558.50;;;12.72;45.53
43119;BME280;28729;49.838;8.650;2023-04-25T15:25:55;99560.44;;;12.72;45.39
43119;BME280;28729;49.838;8.650;2023-04-25T15:29:57;99574.63;;;12.96;45.05
43119;BME280;28729;49.838;8.650;2023-04-25T15:33:59;99575.38;;;12.81;45.34
43119;BME280;28729;49.838;8.650;2023-04-25T15:38:01;99577.56;;;12.69;44.00
43119;BME280;28729;49.838;8.650;2023-04-25T15:42:04;99581.03;;;12.44;45.62
43119;BME280;28729;49.838;8.650;2023-04-25T15:46:06;99582.56;;;12.24;44.66
43119;BME280;28729;49.838;8.650;2023-04-25T15:50:09;99583.03;;;12.11;45.37
43119;BME280;28729;49.838;8.650;2023-04-25T15:54:13;99584.53;;;11.92;44.79
43119;BME280;28729;49.838;8.650;2023-04-25T15:58:16;99585.63;;;11.58;45.65
43119;BME280;28729;49.838;8.650;2023-04-25T16:02:19;99583.53;;;11.44;45.91
43119;BME280;28729;49.838;8.650;2023-04-25T16:06:21;99587.41;;;11.43;46.89
43119;BME280;28729;49.838;8.650;2023-04-25T16:10:25;99587.09;;;11.71;46.58
43119;BME280;28729;49.838;8.650;2023-04-25T16:14:30;99583.78;;;12.01;45.64
43119;BME280;28729;49.838;8.650;2023-04-25T16:18:32;99595.09;;;12.00;45.76
43119;BME280;28729;49.838;8.650;2023-04-25T16:22:37;99599.44;;;11.91;46.40
43119;BME280;28729;49.838;8.650;2023-04-25T16:26:39;99603.16;;;12.06;45.79
43119;BME280;28729;49.838;8.650;2023-04-25T16:30:41;99606.78;;;12.12;47.61
43119;BME280;28729;49.838;8.650;2023-04-25T16:34:44;99599.41;;;12.23;46.79
43119;BME280;28729;49.838;8.650;2023-04-25T16:38:46;99604.25;;;12.48;47.05
43119;BME280;28729;49.838;8.650;2023-04-25T16:42:48;99603.81;;;12.66;46.23
43119;BME280;28729;49.838;8.650;2023-04-25T16:46:49;99597.19;;;12.72;44.72
43119;BME280;28729;49.838;8.650;2023-04-25T16:50:54;99608.66;;;12.44;45.22
43119;BME280;28729;49.838;8.650;2023-04-25T16:54:56;99598.59;;;12.27;46.07
43119;BME280;28729;49.838;8.650;2023-04-25T16:58:59;99610.06;;;12.51;44.37
43119;BME280;28729;49.838;8.650;2023-04-25T17:03:01;99610.47;;;12.28;44.60
43119;BME280;28729;49.838;8.650;2023-04-25T17:07:06;99618.06;;;12.05;43.97
43119;BME280;28729;49.838;8.650;2023-04-25T17:11:08;99618.50;;;11.65;44.38
43119;BME280;28729;49.838;8.650;2023-04-25T17:15:12;99612.91;;;11.55;43.48
43119;BME280;28729;49.838;8.650;2023-04-25T17:19:15;99620.31;;;11.27;45.04
43119;BME280;28729;49.838;8.650;2023-04-25T17:23:17;99623.03;;;11.22;45.10
43119;BME280;28729;49.838;8.650;2023-04-25T17:27:22;99630.63;;;11.10;44.30
43119;BME280;28729;49.838;8.650;2023-04-25T17:31:24;99635.31;;;10.87;45.52
43119;BME280;28729;49.838;8.650;2023-04-25T17:35:27;99632.97;;;10.79;45.67
43119;BME280;28729;49.838;8.650;2023-04-25T17:39:29;99643.88;;;10.69;46.34
43119;BME280;28729;49.838;8.650;2023-04-25T17:43:32;99639.91;;;10.60;46.54
43119;BME280;28729;49.838;8.650;2023-04-25T17:47:34;99639.22;;;10.53;47.58
43119;BME280;28729;49.838;8.650;2023-04-25T17:51:36;99640.84;;;10.48;47.19
43119;BME280;28729;49.838;8.650;2023-04-25T17:55:39;99645.75;;;10.46;46.46
43119;BME280;28729;49.838;8.650;2023-04-25T17:59:45;99645.84;;;10.35;47.25
43119;BME280;28729;49.838;8.650;2023-04-25T18:03:50;99639.34;;;10.24;47.68
43119;BME280;28729;49.838;8.650;2023-04-25T18:07:52;99650.44;;;10.12;47.90
43119;BME280;28729;49.838;8.650;2023-04-25T18:11:56;99663.03;;;10.08;47.71
43119;BME280;28729;49.838;8.650;2023-04-25T18:16:00;99668.47;;;10.03;48.03
43119;BME280;28729;49.838;8.650;2023-04-25T18:20:02;99671.38;;;9.96;48.20
43119;BME280;28729;49.838;8.650;2023-04-25T18:24:12;99681.22;;;9.92;48.33
43119;BME280;28729;49.838;8.650;2023-04-25T18:28:14;99684.13;;;9.86;48.87
43119;BME280;28729;49.838;8.650;2023-04-25T18:32:16;99693.88;;;9.76;49.27
43119;BME280;28729;49.838;8.650;2023-04-25T18:36:18;99699.53;;;9.70;49.89
43119;BME280;28729;49.838;8.650;2023-04-25T18:40:20;99710.44;;;9.65;50.50
43119;BME280;28729;49.838;8.650;2023-04-25T18:44:26;99708.34;;;9.55;51.04
43119;BME280;28729;49.838;8.650;2023-04-25T18:48:29;99720.41;;;9.54;51.15
43119;BME280;28729;49.838;8.650;2023-04-25T18:52:31;99722.63;;;9.40;51.53
43119;BME280;28729;49.838;8.650;2023-04-25T18:56:34;99716.31;;;9.28;52.09
43119;BME280;28729;49.838;8.650;2023-04-25T19:00:36;99736.56;;;9.10;52.95
43119;BME280;28729;49.838;8.650;2023-04-25T19:04:42;99738.13;;;8.94;53.50
43119;BME280;28729;49.838;8.650;2023-04-25T19:08:44;99742.59;;;8.83;53.93
43119;BME280;28729;49.838;8.650;2023-04-25T19:12:46;99748.66;;;8.74;54.56
43119;BME280;28729;49.838;8.650;2023-04-25T19:16:51;99750.56;;;8.61;55.76
43119;BME280;28729;49.838;8.650;2023-04-25T19:20:54;99758.81;;;8.50;56.61
43119;BME280;28729;49.838;8.650;2023-04-25T19:24:56;99750.78;;;8.36;58.49
43119;BME280;28729;49.838;8.650;2023-04-25T19:29:12;99755.78;;;8.28;59.72
43119;BME280;28729;49.838;8.650;2023-04-25T19:33:16;99765.19;;;8.20;61.89
43119;BME280;28729;49.838;8.650;2023-04-25T19:37:19;99759.19;;;8.11;64.36
43119;BME280;28729;49.838;8.650;2023-04-25T19:41:21;99761.91;;;7.99;66.93
43119;BME280;28729;49.838;8.650;2023-04-25T19:45:26;99767.13;;;7.89;68.59
43119;BME280;28729;49.838;8.650;2023-04-25T19:49:27;99765.19;;;7.78;69.69
43119;BME280;28729;49.838;8.650;2023-04-25T19:53:29;99765.28;;;7.71;71.59
43119;BME280;28729;49.838;8.650;2023-04-25T19:57:32;99788.00;;;7.60;73.90
43119;BME280;28729;49.838;8.650;2023-04-25T20:01:35;99790.84;;;7.53;75.48
43119;BME280;28729;49.838;8.650;2023-04-25T20:05:37;99793.66;;;7.47;76.34
43119;BME280;28729;49.838;8.650;2023-04-25T20:09:39;99784.50;;;7.35;76.48
43119;BME280;28729;49.838;8.650;2023-04-25T20:13:41;99791.00;;;7.22;77.88
43119;BME280;28729;49.838;8.650;2023-04-25T20:17:42;99803.78;;;7.10;79.12
43119;BME280;28729;49.838;8.650;2023-04-25T20:21:46;99794.47;;;6.92;80.04
43119;BME280;28729;49.838;8.650;2023-04-25T20:25:49;99794.63;;;6.79;82.00
43119;BME280;28729;49.838;8.650;2023-04-25T20:29:53;99800.38;;;6.71;82.62
43119;BME280;28729;49.838;8.650;2023-04-25T20:33:55;99797.84;;;6.69;83.69
43119;BME280;28729;49.838;8.650;2023-04-25T20:37:57;99800.59;;;6.69;85.27
43119;BME280;28729;49.838;8.650;2023-04-25T20:41:59;99800.16;;;6.72;84.83
43119;BME280;28729;49.838;8.650;2023-04-25T20:46:02;99802.22;;;6.77;85.06
43119;BME280;28729;49.838;8.650;2023-04-25T20:50:06;99801.16;;;6.78;86.50
43119;BME280;28729;49.838;8.650;2023-04-25T20:54:09;99808.69;;;6.82;87.11
43119;BME280;28729;49.838;8.650;2023-04-25T20:58:11;99806.59;;;6.84;87.45
43119;BME280;28729;49.838;8.650;2023-04-25T21:02:13;99812.88;;;6.85;87.97
43119;BME280;28729;49.838;8.650;2023-04-25T21:06:16;99817.53;;;6.84;91.30
43119;BME280;28729;49.838;8.650;2023-04-25T21:10:18;99811.44;;;6.82;87.91
43119;BME280;28729;49.838;8.650;2023-04-25T21:14:20;99818.00;;;6.81;86.92
43119;BME280;28729;49.838;8.650;2023-04-25T21:18:23;99824.75;;;6.79;90.09
43119;BME280;28729;49.838;8.650;2023-04-25T21:22:25;99825.19;;;6.76;89.07
43119;BME280;28729;49.838;8.650;2023-04-25T21:26:27;99828.59;;;6.71;88.49
43119;BME280;28729;49.838;8.650;2023-04-25T21:30:29;99836.69;;;6.59;88.53
43119;BME280;28729;49.838;8.650;2023-04-25T21:34:32;99823.13;;;6.46;89.91
43119;BME280;28729;49.838;8.650;2023-04-25T21:38:33;99832.69;;;6.30;90.58
43119;BME280;28729;49.838;8.650;2023-04-25T21:42:36;99831.16;;;6.16;91.10